Time;durP1;ratioP1;P1;durP2;ratioP2;P2;SDS_P1;SDS_P2;PMS_P1;PMS_P2;Temp;Humidity;BMP_temperature;BMP_pressure;BME280_temperature;BME280_humidity;BME280_pressure;Samples;Min_cycle;Max_cycle;Signal;HPM_P1;HPM_P2
2023/01/25 00:02:15;;;;;;;28.27;19.40;;;1.40;99.90;;;;;;5016241;28;20029;-74
2023/01/25 00:04:40;;;;;;;26.70;18.90;;;1.40;99.90;;;;;;5033577;28;20049;-74
2023/01/25 00:07:06;;;;;;;25.15;17.95;;;2.70;99.90;;;;;;5016793;28;20038;-74
2023/01/25 00:09:31;;;;;;;27.58;19.08;;;1.40;99.90;;;;;;5037011;28;20045;-74
2023/01/25 00:11:57;;;;;;;25.83;18.15;;;1.50;99.90;;;;;;5044585;28;20509;-74
2023/01/25 00:14:23;;;;;;;29.50;19.45;;;1.40;99.90;;;;;;4998179;28;20057;-74
2023/01/25 00:16:49;;;;;;;26.33;17.73;;;1.40;99.90;;;;;;5033989;28;20496;-74
2023/01/25 00:19:15;;;;;;;25.35;17.60;;;1.30;99.90;;;;;;5032388;28;20081;-74
2023/01/25 00:21:40;;;;;;;26.73;19.25;;;1.30;99.90;;;;;;5029378;28;20043;-74
2023/01/25 00:24:06;;;;;;;26.50;18.92;;;1.30;99.90;;;;;;5049937;28;20052;-74
2023/01/25 00:26:33;;;;;;;27.45;18.80;;;2.00;99.90;;;;;;5043176;28;20049;-74
2023/01/25 00:28:59;;;;;;;28.15;18.90;;;1.40;99.90;;;;;;5010003;28;20103;-74
2023/01/25 00:31:43;;;;;;;28.65;17.65;;;1.30;99.90;;;;;;5000260;28;20041;-74
2023/01/25 00:34:24;;;;;;;25.95;18.17;;;1.30;99.90;;;;;;5029446;28;20087;-74
2023/01/25 00:37:36;;;;;;;29.42;18.98;;;1.30;99.90;;;;;;5056722;28;20091;-74
2023/01/25 00:40:01;;;;;;;28.63;19.05;;;1.30;99.90;;;;;;5034663;28;20053;-74
2023/01/25 00:42:27;;;;;;;30.20;19.77;;;1.30;99.90;;;;;;5056378;28;20151;-74
2023/01/25 00:44:53;;;;;;;28.23;20.00;;;1.20;99.90;;;;;;5056026;28;20044;-74
2023/01/25 00:47:19;;;;;;;30.27;21.13;;;1.20;99.90;;;;;;5037110;28;20097;-73
2023/01/25 00:49:45;;;;;;;32.53;22.52;;;1.20;99.90;;;;;;5055141;28;20049;-74
2023/01/25 00:52:11;;;;;;;35.38;23.38;;;1.10;99.90;;;;;;5038076;28;20077;-74
2023/01/25 00:54:37;;;;;;;34.10;23.40;;;1.00;99.90;;;;;;5055616;28;20040;-74
2023/01/25 00:57:03;;;;;;;37.97;23.90;;;1.00;99.90;;;;;;5038342;28;20051;-74
2023/01/25 00:59:29;;;;;;;37.20;25.38;;;1.00;99.90;;;;;;5036589;28;20033;-74
2023/01/25 01:01:55;;;;;;;37.15;24.85;;;1.00;99.90;;;;;;5038210;28;20047;-74
2023/01/25 01:04:23;;;;;;;37.38;25.05;;;1.00;99.90;;;;;;5051849;28;20068;-74
2023/01/25 01:06:50;;;;;;;39.75;26.15;;;0.90;99.90;;;;;;5036652;28;20040;-74
2023/01/25 01:09:17;;;;;;;38.33;26.10;;;1.00;99.90;;;;;;5052425;28;20045;-74
2023/01/25 01:11:43;;;;;;;38.47;25.42;;;1.00;99.90;;;;;;5001592;28;20052;-74
2023/01/25 01:14:09;;;;;;;41.42;25.77;;;0.90;99.90;;;;;;5000760;28;20061;-74
2023/01/25 01:16:35;;;;;;;38.67;25.95;;;1.00;99.90;;;;;;5049828;28;20053;-74
2023/01/25 01:19:00;;;;;;;37.22;25.80;;;1.10;99.90;;;;;;5037350;28;20041;-74
2023/01/25 01:21:26;;;;;;;34.53;24.55;;;1.10;99.90;;;;;;5054255;28;20432;-74
2023/01/25 01:23:54;;;;;;;36.17;24.75;;;1.00;99.90;;;;;;5043641;28;20114;-74
2023/01/25 01:26:20;;;;;;;35.83;24.08;;;1.10;99.90;;;;;;5055431;28;20508;-74
2023/01/25 01:28:46;;;;;;;36.10;25.08;;;1.50;99.90;;;;;;5043163;28;20120;-73
2023/01/25 01:31:17;;;;;;;34.05;23.75;;;2.30;99.90;;;;;;5048210;28;20041;-74
2023/01/25 01:33:43;;;;;;;37.13;24.40;;;1.00;99.90;;;;;;5042123;28;20045;-74
2023/01/25 01:36:12;;;;;;;35.15;24.23;;;1.00;99.90;;;;;;5055543;28;20045;-74
2023/01/25 01:38:38;;;;;;;34.00;23.80;;;1.00;99.90;;;;;;5027490;28;20037;-74
2023/01/25 01:41:04;;;;;;;37.53;24.52;;;1.00;99.90;;;;;;5035020;28;20482;-74
2023/01/25 01:43:30;;;;;;;31.85;22.83;;;1.10;99.90;;;;;;5017059;28;20037;-74
2023/01/25 01:45:59;;;;;;;33.55;23.85;;;1.10;99.90;;;;;;5035204;28;20053;-74
2023/01/25 01:48:36;;;;;;;33.85;23.02;;;1.10;99.90;;;;;;5000923;28;20045;-74
2023/01/25 01:51:41;;;;;;;33.70;23.70;;;1.00;99.90;;;;;;5028777;28;20458;-74
2023/01/25 01:54:15;;;;;;;36.90;24.45;;;1.00;99.90;;;;;;5014149;28;20150;-74
2023/01/25 01:56:46;;;;;;;35.17;23.75;;;1.00;99.90;;;;;;5055095;28;20049;-73
2023/01/25 01:59:11;;;;;;;35.92;24.88;;;1.00;99.90;;;;;;5054692;28;20045;-74
2023/01/25 02:01:38;;;;;;;33.13;22.95;;;1.00;99.90;;;;;;5037312;28;20083;-74
2023/01/25 02:04:05;;;;;;;36.45;23.83;;;1.10;99.90;;;;;;5054944;28;20052;-74
2023/01/25 02:06:44;;;;;;;33.10;23.70;;;1.00;99.90;;;;;;5054425;28;20055;-74
2023/01/25 02:09:11;;;;;;;34.50;24.35;;;1.10;99.90;;;;;;5034902;28;20041;-74
2023/01/25 02:11:38;;;;;;;36.00;24.10;;;0.90;99.90;;;;;;5053213;28;20064;-74
2023/01/25 02:14:04;;;;;;;37.65;25.85;;;0.90;99.90;;;;;;5052320;28;20052;-74
2023/01/25 02:16:30;;;;;;;38.10;24.88;;;0.90;99.90;;;;;;5035240;28;20095;-74
2023/01/25 02:18:57;;;;;;;38.10;24.27;;;1.30;99.90;;;;;;5052460;28;20064;-74
2023/01/25 02:21:24;;;;;;;36.90;24.48;;;2.50;99.90;;;;;;5035187;28;20072;-74
2023/01/25 02:24:00;;;;;;;36.20;25.50;;;2.20;99.90;;;;;;5019061;28;20080;-74
2023/01/25 02:26:25;;;;;;;;;;;0.90;99.90;;;;;;5053307;28;20048;-74
2023/01/25 02:28:56;;;;;;;40.93;26.30;;;0.90;99.90;;;;;;5034677;28;19920;-74
2023/01/25 02:31:22;;;;;;;41.10;27.48;;;0.80;99.90;;;;;;5050750;28;20044;-74
2023/01/25 02:33:48;;;;;;;38.60;25.33;;;0.80;99.90;;;;;;5053786;28;20044;-74
2023/01/25 02:36:19;;;;;;;39.22;25.77;;;2.70;99.90;;;;;;5034539;28;20123;-74
2023/01/25 02:38:50;;;;;;;37.20;25.17;;;0.80;99.90;;;;;;5052363;28;20401;-74
2023/01/25 02:41:33;;;;;;;41.72;27.17;;;0.90;99.90;;;;;;5052476;28;20037;-74
2023/01/25 02:44:00;;;;;;;42.78;27.92;;;0.90;99.90;;;;;;5052659;28;20088;-74
2023/01/25 02:46:32;;;;;;;41.92;28.27;;;0.80;99.90;;;;;;5016764;28;20045;-74
2023/01/25 02:48:59;;;;;;;43.80;28.70;;;1.70;99.90;;;;;;5039759;28;20084;-73
2023/01/25 02:51:29;;;;;;;42.20;27.15;;;0.70;99.90;;;;;;5035001;28;20050;-73
2023/01/25 02:53:55;;;;;;;44.33;28.77;;;0.80;99.90;;;;;;5048625;28;20045;-73
2023/01/25 02:56:21;;;;;;;44.45;29.70;;;0.70;99.90;;;;;;5017498;28;20390;-74
2023/01/25 02:58:47;;;;;;;45.28;30.15;;;0.80;99.90;;;;;;5035327;28;20046;-74
2023/01/25 03:01:13;;;;;;;49.03;30.95;;;0.70;99.90;;;;;;5048737;28;20359;-74
2023/01/25 03:03:39;;;;;;;50.13;30.85;;;0.60;99.90;;;;;;5033346;28;20042;-74
2023/01/25 03:06:06;;;;;;;48.22;31.73;;;0.60;99.90;;;;;;5031109;28;20053;-74
2023/01/25 03:08:32;;;;;;;50.03;32.83;;;0.60;99.90;;;;;;5051057;28;20045;-74
2023/01/25 03:11:00;;;;;;;49.95;32.60;;;0.60;99.90;;;;;;5050727;28;20056;-73
2023/01/25 03:13:26;;;;;;;54.58;33.63;;;0.60;99.90;;;;;;5035057;28;20405;-74
2023/01/25 03:16:01;;;;;;;54.33;33.97;;;1.50;99.90;;;;;;5051522;28;20049;-74
2023/01/25 03:18:27;;;;;;;55.72;35.65;;;0.60;99.90;;;;;;5045138;28;20048;-74
2023/01/25 03:20:53;;;;;;;61.72;35.97;;;2.10;99.90;;;;;;5019500;28;20468;-74
2023/01/25 03:23:19;;;;;;;58.53;35.05;;;0.70;99.90;;;;;;5051412;28;20521;-74
2023/01/25 03:25:44;;;;;;;62.88;36.47;;;1.50;99.90;;;;;;5024135;28;20044;-74
2023/01/25 03:28:10;;;;;;;58.25;36.90;;;0.70;99.90;;;;;;5035029;28;20048;-74
2023/01/25 03:30:35;;;;;;;62.95;37.28;;;0.70;99.90;;;;;;5024776;28;20099;-74
2023/01/25 03:33:01;;;;;;;65.50;39.33;;;1.60;99.90;;;;;;5031575;28;20409;-74
2023/01/25 03:35:33;;;;;;;60.22;34.78;;;1.20;99.90;;;;;;5044300;28;20060;-74
2023/01/25 03:37:59;;;;;;;66.63;38.63;;;1.50;99.90;;;;;;5035530;28;20156;-74
2023/01/25 03:40:24;;;;;;;62.55;36.40;;;0.80;99.90;;;;;;5034439;28;20045;-74
2023/01/25 03:42:52;;;;;;;61.92;36.63;;;0.70;99.90;;;;;;5033063;28;20054;-74
2023/01/25 03:45:17;;;;;;;64.75;38.55;;;0.70;99.90;;;;;;5015267;28;20045;-74
2023/01/25 03:47:43;;;;;;;63.92;38.33;;;0.70;99.90;;;;;;5034164;28;20099;-73
2023/01/25 03:50:09;;;;;;;64.82;38.85;;;0.70;99.90;;;;;;5052763;28;20045;-73
2023/01/25 03:52:40;;;;;;;65.18;38.78;;;0.70;99.90;;;;;;5052647;28;20412;-73
2023/01/25 03:55:07;;;;;;;68.97;40.38;;;0.60;99.90;;;;;;5052746;28;20052;-74
2023/01/25 03:57:32;;;;;;;66.50;39.75;;;0.70;99.90;;;;;;5052953;28;20043;-73
2023/01/25 03:59:58;;;;;;;64.00;35.63;;;1.70;99.90;;;;;;5034850;28;20056;-74
2023/01/25 04:02:23;;;;;;;66.90;39.28;;;0.60;99.90;;;;;;5034705;28;20548;-74
2023/01/25 04:04:49;;;;;;;64.82;38.30;;;0.60;99.90;;;;;;5052421;28;20047;-73
2023/01/25 04:07:15;;;;;;;66.60;40.22;;;0.50;99.90;;;;;;5022323;28;20037;-74
2023/01/25 04:09:40;;;;;;;63.95;38.70;;;0.50;99.90;;;;;;5007858;28;20040;-73
2023/01/25 04:12:06;;;;;;;64.28;37.63;;;1.60;99.90;;;;;;5026067;28;20132;-73
2023/01/25 04:14:31;;;;;;;65.53;37.05;;;0.50;99.90;;;;;;5041910;28;20107;-73
2023/01/25 04:16:57;;;;;;;61.42;36.70;;;0.50;99.90;;;;;;5046844;28;20046;-74
2023/01/25 04:19:25;;;;;;;62.80;36.78;;;0.50;99.90;;;;;;5037763;28;20037;-74
2023/01/25 04:21:51;;;;;;;64.72;38.15;;;0.50;99.90;;;;;;5039038;28;20045;-74
2023/01/25 04:24:16;;;;;;;63.00;36.75;;;0.50;99.90;;;;;;5027479;28;20090;-74
2023/01/25 04:26:42;;;;;;;62.78;38.08;;;0.50;99.90;;;;;;5032691;28;20068;-74
2023/01/25 04:29:09;;;;;;;64.55;37.15;;;0.50;99.90;;;;;;5024276;28;20587;-74
2023/01/25 04:31:35;;;;;;;65.82;37.45;;;0.50;99.90;;;;;;5019924;28;20391;-74
2023/01/25 04:34:00;;;;;;;68.22;39.15;;;0.50;99.90;;;;;;5038324;28;20037;-74
2023/01/25 04:36:26;;;;;;;65.70;38.72;;;0.50;99.90;;;;;;5052898;28;20040;-74
2023/01/25 04:38:52;;;;;;;68.93;39.53;;;0.40;99.90;;;;;;5018437;28;20437;-74
2023/01/25 04:41:17;;;;;;;64.10;37.08;;;0.50;99.90;;;;;;5037422;28;20132;-74
2023/01/25 04:43:43;;;;;;;65.35;39.53;;;0.50;99.90;;;;;;5036211;28;20494;-75
2023/01/25 04:46:09;;;;;;;67.25;40.60;;;0.50;99.90;;;;;;5052921;28;20494;-74
2023/01/25 04:48:34;;;;;;;64.32;37.60;;;0.40;99.90;;;;;;5039089;28;20045;-74
2023/01/25 04:51:00;;;;;;;63.67;36.10;;;0.40;99.90;;;;;;5033801;28;20080;-74
2023/01/25 04:53:26;;;;;;;67.53;39.03;;;0.50;99.90;;;;;;5054183;28;20041;-74
2023/01/25 04:55:51;;;;;;;69.70;39.47;;;0.50;99.90;;;;;;5046137;28;20045;-74
2023/01/25 04:58:18;;;;;;;68.85;40.40;;;0.50;99.90;;;;;;5030848;28;20076;-74
2023/01/25 05:00:50;;;;;;;62.35;35.95;;;1.90;99.90;;;;;;5034474;28;20053;-74
2023/01/25 05:03:15;;;;;;;72.35;41.58;;;0.50;99.90;;;;;;5017096;28;20073;-74
2023/01/25 05:05:46;;;;;;;67.43;39.97;;;0.40;99.90;;;;;;5042557;28;20072;-74
2023/01/25 05:08:12;;;;;;;68.97;41.13;;;0.30;99.90;;;;;;5033926;28;20041;-74
2023/01/25 05:10:37;;;;;;;67.80;40.85;;;0.30;99.90;;;;;;5054440;28;20052;-74
2023/01/25 05:13:04;;;;;;;68.63;39.55;;;0.30;99.90;;;;;;5055485;28;20128;-74
2023/01/25 05:15:30;;;;;;;70.15;41.40;;;0.40;99.90;;;;;;5054645;28;20482;-74
2023/01/25 05:17:55;;;;;;;68.55;40.22;;;0.30;99.90;;;;;;5039487;28;20125;-74
2023/01/25 05:20:21;;;;;;;70.10;41.63;;;0.30;99.90;;;;;;5053805;28;20107;-74
2023/01/25 05:22:48;;;;;;;68.07;40.22;;;0.30;99.90;;;;;;5036364;28;20489;-74
2023/01/25 05:27:58;;;;;;;69.65;41.65;;;0.40;99.90;;;;;;5036952;28;20458;-74
2023/01/25 05:30:23;;;;;;;73.25;42.75;;;0.30;99.90;;;;;;5040093;28;20041;-74
2023/01/25 05:32:49;;;;;;;67.43;40.72;;;0.40;99.90;;;;;;5055234;28;20041;-74
2023/01/25 05:35:15;;;;;;;68.78;41.72;;;0.40;99.90;;;;;;5055157;28;20048;-75
2023/01/25 05:37:40;;;;;;;71.45;40.80;;;1.00;99.90;;;;;;5021241;28;20076;-74
2023/01/25 05:40:20;;;;;;;68.57;41.97;;;0.40;99.90;;;;;;5038180;28;20052;-74
2023/01/25 05:42:56;;;;;;;68.03;41.38;;;0.40;99.90;;;;;;5049074;28;20068;-74
2023/01/25 05:45:21;;;;;;;70.40;41.35;;;0.40;99.90;;;;;;5035170;28;20371;-74
2023/01/25 05:47:55;;;;;;;62.00;37.50;;;0.40;99.90;;;;;;5020443;28;20049;-74
2023/01/25 05:50:22;;;;;;;64.22;38.70;;;0.50;99.90;;;;;;5055026;28;20533;-74
2023/01/25 05:52:47;;;;;;;69.85;40.13;;;0.50;99.90;;;;;;5036833;28;20045;-74
2023/01/25 05:55:13;;;;;;;65.65;38.67;;;0.50;99.90;;;;;;5054666;28;20166;-74
2023/01/25 05:57:39;;;;;;;66.88;40.22;;;0.60;99.90;;;;;;5054877;28;20041;-74
2023/01/25 06:00:06;;;;;;;67.82;41.15;;;0.50;99.90;;;;;;5036445;28;20500;-74
2023/01/25 06:02:32;;;;;;;66.68;39.95;;;0.40;99.90;;;;;;5036703;28;20452;-74
2023/01/25 06:04:57;;;;;;;65.78;39.38;;;0.50;99.90;;;;;;5046404;28;20038;-75
2023/01/25 06:07:24;;;;;;;66.68;40.75;;;0.50;99.90;;;;;;5034691;28;20038;-74
2023/01/25 06:09:49;;;;;;;65.53;38.78;;;0.50;99.90;;;;;;5030058;28;20182;-74
2023/01/25 06:12:15;;;;;;;66.07;38.75;;;1.60;99.90;;;;;;5035225;28;20128;-75
2023/01/25 06:14:41;;;;;;;63.50;37.90;;;0.50;99.90;;;;;;5053292;28;20132;-74
2023/01/25 06:17:07;;;;;;;64.45;38.25;;;1.90;99.90;;;;;;5031535;28;20076;-75
2023/01/25 06:19:33;;;;;;;65.50;39.17;;;0.50;99.90;;;;;;5046559;28;20029;-75
2023/01/25 06:21:59;;;;;;;65.47;38.85;;;0.40;99.90;;;;;;5027208;28;20052;-75
2023/01/25 06:24:24;;;;;;;69.03;41.00;;;1.00;99.90;;;;;;5053745;28;20115;-75
2023/01/25 06:26:50;;;;;;;66.88;41.75;;;0.40;99.90;;;;;;5036420;28;20041;-75
2023/01/25 06:29:15;;;;;;;70.82;42.05;;;0.50;99.90;;;;;;5035161;28;20494;-75
2023/01/25 06:31:41;;;;;;;76.43;42.38;;;0.40;99.90;;;;;;5053889;28;20144;-75
2023/01/25 06:34:08;;;;;;;67.40;40.78;;;1.90;99.90;;;;;;5051105;28;20116;-76
2023/01/25 06:36:34;;;;;;;73.32;42.70;;;0.60;99.90;;;;;;5034796;28;20045;-75
2023/01/25 06:39:00;;;;;;;71.72;40.47;;;0.50;99.90;;;;;;5053844;28;20555;-75
2023/01/25 06:41:26;;;;;;;68.70;40.15;;;0.50;99.90;;;;;;5045674;28;20080;-75
2023/01/25 06:43:52;;;;;;;62.78;37.05;;;1.70;99.90;;;;;;5034563;28;20083;-75
2023/01/25 06:46:18;;;;;;;64.28;37.13;;;0.50;99.90;;;;;;4999887;28;20045;-75
2023/01/25 06:48:44;;;;;;;67.70;39.25;;;0.70;99.90;;;;;;5044056;28;20120;-75
2023/01/25 06:51:12;;;;;;;65.25;39.05;;;0.40;99.90;;;;;;5016010;28;20473;-76
2023/01/25 06:53:41;;;;;;;66.60;38.08;;;0.50;99.90;;;;;;5033483;28;20042;-76
2023/01/25 06:56:09;;;;;;;67.88;41.25;;;0.40;99.90;;;;;;5015840;28;20041;-76
2023/01/25 06:58:36;;;;;;;68.05;39.63;;;0.40;99.90;;;;;;5033710;28;20079;-76
2023/01/25 07:01:05;;;;;;;67.78;39.20;;;0.40;99.90;;;;;;5016151;28;20046;-76
2023/01/25 07:03:32;;;;;;;72.47;42.50;;;0.30;99.90;;;;;;5015286;28;20073;-76
2023/01/25 07:06:00;;;;;;;68.70;41.50;;;0.30;99.90;;;;;;5034274;28;20052;-76
2023/01/25 07:08:26;;;;;;;68.85;40.90;;;0.20;99.90;;;;;;5032898;28;20086;-76
2023/01/25 07:11:00;;;;;;;68.35;39.95;;;0.30;99.90;;;;;;5033115;28;20041;-76
2023/01/25 07:13:28;;;;;;;68.45;41.67;;;0.40;99.90;;;;;;5003911;28;20048;-76
2023/01/25 07:16:00;;;;;;;68.05;40.03;;;1.70;99.90;;;;;;5053469;28;20387;-76
2023/01/25 07:18:28;;;;;;;73.38;41.05;;;0.30;99.90;;;;;;5046271;28;20049;-76
2023/01/25 07:21:00;;;;;;;72.22;40.88;;;0.00;99.90;;;;;;5015478;28;20433;-76
2023/01/25 07:23:26;;;;;;;70.55;41.67;;;0.30;99.90;;;;;;5008247;28;20052;-76
2023/01/25 07:25:52;;;;;;;67.13;39.15;;;0.40;99.90;;;;;;5035022;28;20041;-76
2023/01/25 07:28:18;;;;;;;67.30;39.83;;;0.50;99.90;;;;;;5035199;28;20091;-76
2023/01/25 07:30:43;;;;;;;65.13;38.08;;;2.10;99.90;;;;;;5052887;28;20053;-73
2023/01/25 07:33:10;;;;;;;63.05;35.97;;;0.40;99.90;;;;;;5052439;28;20045;-77
2023/01/25 07:35:36;;;;;;;62.83;38.00;;;2.20;99.90;;;;;;5014991;28;20045;-76
2023/01/25 07:38:03;;;;;;;60.30;37.25;;;0.50;99.90;;;;;;5034354;28;20488;-76
2023/01/25 07:40:28;;;;;;;62.72;36.25;;;0.60;99.90;;;;;;5043116;28;20037;-76
2023/01/25 07:42:54;;;;;;;61.88;37.72;;;0.50;99.90;;;;;;5034787;28;20041;-76
2023/01/25 07:45:20;;;;;;;59.25;37.28;;;0.40;99.90;;;;;;5033141;28;20519;-77
2023/01/25 07:47:46;;;;;;;56.05;35.25;;;0.40;99.90;;;;;;5015381;28;21450;-77
2023/01/25 07:50:12;;;;;;;55.55;34.35;;;0.50;99.90;;;;;;5031882;28;20620;-77
2023/01/25 07:52:38;;;;;;;54.28;33.72;;;0.50;99.90;;;;;;4998187;28;20048;-77
2023/01/25 07:55:04;;;;;;;53.90;34.80;;;0.50;99.90;;;;;;5032027;28;20033;-77
2023/01/25 07:57:30;;;;;;;52.53;33.58;;;0.50;99.90;;;;;;5033692;28;20046;-77
2023/01/25 07:59:56;;;;;;;52.45;33.47;;;0.50;99.90;;;;;;5033950;28;20041;-74
2023/01/25 08:02:21;;;;;;;54.80;34.55;;;0.40;99.90;;;;;;5038508;28;20033;-76
2023/01/25 08:04:47;;;;;;;50.58;34.15;;;0.30;99.90;;;;;;5034333;28;20064;-74
2023/01/25 08:07:13;;;;;;;49.35;33.72;;;0.30;99.90;;;;;;5032141;28;20045;-75
2023/01/25 08:09:40;;;;;;;52.92;33.83;;;0.20;99.90;;;;;;5023963;28;20131;-75
2023/01/25 08:12:07;;;;;;;49.30;32.10;;;0.10;99.90;;;;;;5034799;28;20089;-71
2023/01/25 08:14:33;;;;;;;48.85;32.72;;;1.40;99.90;;;;;;5035128;28;20394;-74
2023/01/25 08:16:59;;;;;;;50.83;31.67;;;0.20;99.90;;;;;;4998857;28;20045;-75
2023/01/25 08:19:25;;;;;;;53.10;32.92;;;1.90;99.90;;;;;;5032341;28;20119;-76
2023/01/25 08:21:51;;;;;;;51.70;31.52;;;0.10;99.90;;;;;;5013993;28;20045;-76
2023/01/25 08:24:16;;;;;;;49.70;33.47;;;0.20;99.90;;;;;;5031115;28;20120;-76
2023/01/25 08:26:42;;;;;;;50.88;34.20;;;0.40;99.90;;;;;;5050319;28;20553;-76
2023/01/25 08:29:09;;;;;;;51.60;33.22;;;0.10;99.90;;;;;;5034258;28;20366;-76
2023/01/25 08:31:38;;;;;;;50.63;32.10;;;0.10;99.90;;;;;;5034526;28;20045;-76
2023/01/25 08:34:04;;;;;;;52.65;35.53;;;2.00;99.90;;;;;;5034064;28;20083;-76
2023/01/25 08:36:30;;;;;;;52.53;32.42;;;0.00;99.90;;;;;;5034823;28;20505;-76
2023/01/25 08:38:58;;;;;;;51.83;33.90;;;0.10;99.90;;;;;;5051950;28;20044;-76
2023/01/25 08:41:25;;;;;;;51.42;32.40;;;0.10;99.90;;;;;;5034496;28;20049;-76
2023/01/25 08:43:53;;;;;;;51.05;32.85;;;0.20;99.90;;;;;;5033782;28;20055;-76
2023/01/25 08:46:20;;;;;;;51.05;33.30;;;0.10;99.90;;;;;;5034700;28;20088;-76
2023/01/25 08:48:45;;;;;;;51.75;33.92;;;0.20;99.90;;;;;;5040866;28;20056;-76
2023/01/25 08:51:14;;;;;;;53.22;34.72;;;0.00;99.90;;;;;;5013309;28;20049;-75
2023/01/25 08:53:40;;;;;;;53.25;34.58;;;0.00;99.90;;;;;;4985054;28;20049;-76
2023/01/25 08:56:11;;;;;;;52.58;33.67;;;0.10;99.90;;;;;;5036034;28;20117;-75
2023/01/25 08:58:39;;;;;;;52.53;33.15;;;0.20;99.90;;;;;;5016429;28;20060;-76
2023/01/25 09:01:07;;;;;;;51.00;32.42;;;0.20;99.90;;;;;;5018153;28;20049;-77
2023/01/25 09:03:46;;;;;;;53.47;34.72;;;0.20;99.90;;;;;;5017939;28;20375;-74
2023/01/25 09:06:12;;;;;;;50.88;33.92;;;0.20;99.90;;;;;;5048043;28;20087;-74
2023/01/25 09:08:38;;;;;;;51.15;32.55;;;0.10;99.90;;;;;;5045237;28;20100;-75
2023/01/25 09:11:15;;;;;;;55.38;35.17;;;0.20;99.90;;;;;;5018631;28;20053;-75
2023/01/25 09:13:42;;;;;;;57.05;34.67;;;0.20;99.90;;;;;;5036560;28;20406;-76
2023/01/25 09:16:11;;;;;;;58.42;34.97;;;0.30;99.90;;;;;;5019953;28;20136;-74
2023/01/25 09:18:37;;;;;;;59.40;37.55;;;0.20;99.90;;;;;;5042817;28;20036;-75
2023/01/25 09:21:15;;;;;;;56.92;34.00;;;0.20;99.90;;;;;;5057160;28;20084;-75
2023/01/25 09:23:43;;;;;;;58.60;36.35;;;0.20;99.90;;;;;;5030347;28;20033;-77
2023/01/25 09:26:10;;;;;;;59.60;36.92;;;0.00;99.90;;;;;;5018257;28;20079;-77
2023/01/25 09:28:35;;;;;;;56.08;33.50;;;0.10;99.90;;;;;;5053724;28;20235;-77
2023/01/25 09:31:04;;;;;;;61.05;36.25;;;0.20;99.90;;;;;;5055026;28;20124;-77
2023/01/25 09:33:32;;;;;;;60.95;36.58;;;0.50;99.90;;;;;;5037009;28;20481;-77
2023/01/25 09:35:59;;;;;;;61.78;37.28;;;0.10;99.90;;;;;;5055077;28;20091;-79
2023/01/25 09:38:25;;;;;;;58.67;36.88;;;0.10;99.90;;;;;;5021005;28;20382;-79
2023/01/25 09:40:56;;;;;;;61.70;37.30;;;0.10;99.90;;;;;;5037165;28;20501;-79
2023/01/25 09:43:41;;;;;;;63.13;38.10;;;0.10;99.90;;;;;;5053642;28;20084;-79
2023/01/25 09:46:31;;;;;;;59.88;36.20;;;0.20;99.90;;;;;;5052288;28;20425;-80
2023/01/25 09:49:47;;;;;;;62.58;35.90;;;0.20;99.90;;;;;;5038997;28;20390;-79
2023/01/25 09:52:30;;;;;;;61.22;34.83;;;0.20;99.90;;;;;;5026855;28;20109;-80
2023/01/25 09:54:57;;;;;;;61.90;36.45;;;0.20;99.90;;;;;;5035382;28;20045;-80
2023/01/25 09:57:26;;;;;;;57.08;32.92;;;0.20;99.90;;;;;;5054853;28;20422;-80
2023/01/25 09:59:53;;;;;;;57.85;32.22;;;0.10;99.90;;;;;;5036818;28;20045;-80
2023/01/25 10:02:33;;;;;;;58.05;32.40;;;0.20;99.90;;;;;;5036773;28;20048;-78
2023/01/25 10:05:07;;;;;;;57.50;33.63;;;1.10;99.90;;;;;;5054305;28;20114;-78
2023/01/25 10:07:43;;;;;;;60.92;34.08;;;0.20;99.90;;;;;;5054468;28;20040;-78
2023/01/25 10:10:40;;;;;;;65.32;36.08;;;0.10;99.90;;;;;;5054527;28;20048;-79
2023/01/25 10:13:15;;;;;;;61.95;35.10;;;0.20;99.90;;;;;;5037652;28;20135;-75
2023/01/25 10:15:46;;;;;;;59.15;35.08;;;0.10;99.90;;;;;;5019489;28;20051;-76
2023/01/25 10:18:48;;;;;;;59.95;34.40;;;0.10;99.90;;;;;;5036163;28;20064;-74
2023/01/25 10:21:29;;;;;;;59.55;33.75;;;0.20;99.90;;;;;;5054147;28;20048;-75
2023/01/25 10:24:01;;;;;;;60.47;34.45;;;1.20;99.90;;;;;;5053691;28;20124;-75
2023/01/25 10:26:31;;;;;;;61.80;34.50;;;1.90;99.90;;;;;;5036297;28;20044;-75
2023/01/25 10:29:18;;;;;;;62.13;36.58;;;0.10;99.90;;;;;;5054080;28;20458;-75
2023/01/25 10:31:58;;;;;;;64.18;35.30;;;0.30;99.90;;;;;;5036213;28;20057;-75
2023/01/25 10:34:43;;;;;;;60.35;34.30;;;1.40;99.90;;;;;;5053704;28;20433;-75
2023/01/25 10:37:18;;;;;;;60.28;34.13;;;0.30;99.90;;;;;;5036314;28;20385;-76
2023/01/25 10:40:03;;;;;;;55.97;31.50;;;0.40;99.90;;;;;;5053919;28;20053;-75
2023/01/25 10:42:35;;;;;;;61.40;33.28;;;0.50;99.90;;;;;;5035906;28;20041;-76
2023/01/25 10:45:00;;;;;;;51.20;26.13;;;0.40;99.90;;;;;;5035593;28;20426;-73
2023/01/25 10:47:34;;;;;;;63.67;35.88;;;0.50;99.90;;;;;;5040534;28;20076;-74
2023/01/25 10:49:59;;;;;;;63.45;36.13;;;0.60;99.90;;;;;;5046964;28;20037;-74
2023/01/25 10:52:28;;;;;;;61.65;34.72;;;0.60;99.90;;;;;;5034031;28;20399;-73
2023/01/25 10:55:16;;;;;;;61.42;34.70;;;0.60;99.90;;;;;;5035338;28;20041;-74
2023/01/25 10:57:58;;;;;;;61.60;33.85;;;0.70;99.90;;;;;;5015287;28;20049;-73
2023/01/25 11:00:26;;;;;;;65.10;35.88;;;0.70;99.90;;;;;;5034869;28;20068;-72
2023/01/25 11:02:52;;;;;;;65.13;34.50;;;0.60;99.90;;;;;;5014875;28;20347;-78
2023/01/25 11:05:18;;;;;;;68.47;35.83;;;0.60;99.90;;;;;;5031153;28;20040;-76
2023/01/25 11:07:47;;;;;;;60.10;33.42;;;0.60;99.90;;;;;;5032039;28;20060;-75
2023/01/25 11:10:36;;;;;;;64.38;33.45;;;1.90;99.90;;;;;;5032196;28;20037;-75
2023/01/25 11:13:14;;;;;;;60.45;34.05;;;0.70;99.90;;;;;;5015327;28;20065;-76
2023/01/25 11:15:48;;;;;;;60.33;34.17;;;1.60;99.90;;;;;;5031662;28;20088;-76
2023/01/25 11:18:33;;;;;;;61.88;33.40;;;0.80;99.90;;;;;;5030257;28;20075;-78
2023/01/25 11:21:22;;;;;;;61.00;32.90;;;1.60;99.90;;;;;;5050190;28;20045;-77
2023/01/25 11:24:01;;;;;;;61.47;31.95;;;0.90;99.90;;;;;;5037010;28;20045;-77
2023/01/25 11:26:28;;;;;;;59.35;32.17;;;0.80;99.90;;;;;;5012211;28;20045;-76
2023/01/25 11:29:16;;;;;;;62.72;33.13;;;0.80;99.90;;;;;;5031634;28;20054;-74
2023/01/25 11:31:46;;;;;;;59.97;31.55;;;0.80;99.90;;;;;;5032807;28;20124;-73
2023/01/25 11:34:15;;;;;;;62.10;34.15;;;2.50;99.90;;;;;;5036101;28;20099;-73
2023/01/25 11:37:19;;;;;;;67.07;33.50;;;1.20;99.90;;;;;;5018031;28;20516;-73
2023/01/25 11:40:11;;;;;;;66.03;32.67;;;0.90;99.90;;;;;;5016921;28;20088;-73
2023/01/25 11:42:57;;;;;;;64.20;33.17;;;1.00;99.90;;;;;;5019773;28;20060;-74
2023/01/25 11:45:38;;;;;;;67.03;35.23;;;0.90;99.90;;;;;;5033211;28;20041;-72
2023/01/25 11:48:12;;;;;;;67.70;34.80;;;0.80;99.90;;;;;;5047050;28;20311;-73
2023/01/25 11:50:46;;;;;;;65.03;34.45;;;0.80;99.90;;;;;;5034137;28;20091;-73
2023/01/25 11:53:36;;;;;;;65.40;33.03;;;1.00;99.90;;;;;;5034268;28;20485;-73
2023/01/25 11:56:15;;;;;;;65.50;32.83;;;0.90;99.90;;;;;;5011121;28;20131;-74
2023/01/25 11:58:47;;;;;;;61.03;30.35;;;1.00;99.90;;;;;;5032357;28;20085;-73
2023/01/25 12:01:26;;;;;;;81.07;33.58;;;1.00;99.90;;;;;;5037179;28;20049;-73
2023/01/25 12:04:16;;;;;;;63.30;32.63;;;1.10;99.90;;;;;;5034946;28;20041;-73
2023/01/25 12:06:47;;;;;;;58.80;28.60;;;1.00;99.90;;;;;;5047896;28;20045;-73
2023/01/25 12:09:44;;;;;;;62.20;31.00;;;1.10;99.90;;;;;;5017477;28;20045;-74
2023/01/25 12:12:15;;;;;;;64.97;30.55;;;1.10;99.90;;;;;;5018280;28;20549;-74
2023/01/25 12:15:05;;;;;;;65.70;30.85;;;1.20;99.90;;;;;;5033774;28;20092;-74
2023/01/25 12:18:00;;;;;;;61.45;29.98;;;1.10;99.90;;;;;;5032600;28;20076;-74
2023/01/25 12:21:05;;;;;;;69.57;32.15;;;1.10;99.90;;;;;;5002304;28;20049;-74
2023/01/25 12:23:42;;;;;;;70.70;31.20;;;1.00;99.90;;;;;;4984244;28;20084;-74
2023/01/25 12:26:39;;;;;;;62.28;28.65;;;1.10;99.90;;;;;;5019288;28;20045;-74
2023/01/25 12:29:29;;;;;;;70.03;33.08;;;1.10;99.90;;;;;;5035286;28;20053;-75
2023/01/25 12:32:29;;;;;;;66.35;33.83;;;1.00;99.90;;;;;;5021741;28;20045;-74
2023/01/25 12:35:31;;;;;;;64.15;30.33;;;1.10;99.90;;;;;;5043711;28;20045;-74
2023/01/25 12:38:28;;;;;;;69.35;32.75;;;1.00;99.90;;;;;;5037112;28;20466;-75
2023/01/25 12:41:40;;;;;;;61.60;30.20;;;1.10;99.90;;;;;;5049876;28;20081;-74
2023/01/25 12:44:17;;;;;;;65.03;31.35;;;1.10;99.90;;;;;;5019151;28;20530;-75
2023/01/25 12:46:49;;;;;;;68.22;31.38;;;1.20;99.90;;;;;;5037930;28;20124;-75
2023/01/25 12:49:32;;;;;;;60.40;28.85;;;1.20;99.90;;;;;;5020890;28;20044;-74
2023/01/25 12:52:03;;;;;;;66.82;31.88;;;1.20;99.90;;;;;;5037388;28;20045;-75
2023/01/25 12:54:35;;;;;;;65.63;30.73;;;1.20;99.90;;;;;;5036418;28;20150;-75
2023/01/25 12:57:19;;;;;;;64.05;30.33;;;1.20;99.90;;;;;;5055105;28;20048;-74
2023/01/25 13:00:08;;;;;;;63.38;25.92;;;1.30;99.90;;;;;;5037683;28;20055;-78